KBWI/BWI METAR and TAF weather

Enter ICAO airport designator
Station Type Date Time Source
KBWI METAR 2019/04/18 19:54 UTC NOAA

KBWI 181954Z VRB04KT 10SM FEW110 BKN160 BKN250 26/13 A2987 RMK AO2 SLP114 T02560128


Station Type Date Time Source
KBWI Decoded METAR 2019/04/18 19:54 UTC NOAA

BALTIMORE-WASHINGTON INTERNATIONAL , MD, United States (KBWI) 39-10N 076-41W 59M
Apr 18, 2019 - 03:54 PM EDT / 2019.04.18 1954 UTC
Wind: Variable at 5 MPH (4 KT):0
Visibility: 10 mile(s):0
Sky conditions: mostly cloudy
Temperature: 78.1 F (25.6 C)
Dew Point: 55.0 F (12.8 C)
Relative Humidity: 45%
Pressure (altimeter): 29.87 in. Hg (1011 hPa)
ob: KBWI 181954Z VRB04KT 10SM FEW110 BKN160 BKN250 26/13 A2987 RMK AO2 SLP114 T02560128
cycle: 20

Station Type Date Time Source
KBWI TAF 2019/04/18 18:22 UTC NOAA

TAF KBWI 181720Z 1818/1924 17007KT P6SM FEW040 SCT250
FM190900 18009KT P6SM SCT025 OVC035
FM191100 18009KT P6SM SCT025 OVC030
FM191600 17012G26KT 5SM -SHRA VCTS BKN010CB OVC025
FM191800 16014G29KT 6SM -SHRA VCTS OVC025CB
FM192300 15011G24KT 6SM -SHRA VCTS BKN020CB OVC025 WS020/17040KT

Example: see airport list